sensor_id;sensor_type;location;lat;lon;timestamp;pressure;altitude;pressure_sealevel;temperature;humidity
62436;BME280;48480;50.252;18.848;2023-07-31T00:01:32;98295.31;;;17.77;85.45
62436;BME280;48480;50.252;18.848;2023-07-31T00:04:18;98292.25;;;17.75;85.53
62436;BME280;48480;50.252;18.848;2023-07-31T00:07:02;98296.33;;;17.72;85.60
62436;BME280;48480;50.252;18.848;2023-07-31T00:09:48;98298.15;;;17.70;85.69
62436;BME280;48480;50.252;18.848;2023-07-31T00:12:32;98294.02;;;17.67;85.86
62436;BME280;48480;50.252;18.848;2023-07-31T00:15:17;98298.09;;;17.65;85.79
62436;BME280;48480;50.252;18.848;2023-07-31T00:18:01;98301.63;;;17.63;85.77
62436;BME280;48480;50.252;18.848;2023-07-31T00:20:46;98300.73;;;17.60;85.91
62436;BME280;48480;50.252;18.848;2023-07-31T00:23:31;98301.55;;;17.58;85.94
62436;BME280;48480;50.252;18.848;2023-07-31T00:26:15;98304.62;;;17.56;86.21
62436;BME280;48480;50.252;18.848;2023-07-31T00:29:01;98302.11;;;17.54;86.33
62436;BME280;48480;50.252;18.848;2023-07-31T00:31:45;98298.55;;;17.54;86.39
62436;BME280;48480;50.252;18.848;2023-07-31T00:34:29;98297.14;;;17.54;86.31
62436;BME280;48480;50.252;18.848;2023-07-31T00:37:13;98298.84;;;17.52;86.04
62436;BME280;48480;50.252;18.848;2023-07-31T00:39:59;98301.44;;;17.50;86.06
62436;BME280;48480;50.252;18.848;2023-07-31T00:42:45;98304.90;;;17.48;86.22
62436;BME280;48480;50.252;18.848;2023-07-31T00:45:30;98307.70;;;17.45;86.15
62436;BME280;48480;50.252;18.848;2023-07-31T00:48:14;98314.24;;;17.41;86.27
62436;BME280;48480;50.252;18.848;2023-07-31T00:50:59;98314.95;;;17.36;86.35
62436;BME280;48480;50.252;18.848;2023-07-31T00:53:45;98313.29;;;17.30;86.58
62436;BME280;48480;50.252;18.848;2023-07-31T00:56:30;98314.94;;;17.26;86.93
62436;BME280;48480;50.252;18.848;2023-07-31T00:59:15;98312.83;;;17.16;86.96
62436;BME280;48480;50.252;18.848;2023-07-31T01:01:59;98317.63;;;17.20;87.14
62436;BME280;48480;50.252;18.848;2023-07-31T01:04:44;98317.80;;;17.16;87.08
62436;BME280;48480;50.252;18.848;2023-07-31T01:08:12;98321.76;;;17.12;86.93
62436;BME280;48480;50.252;18.848;2023-07-31T01:10:53;98326.67;;;17.05;87.11
62436;BME280;48480;50.252;18.848;2023-07-31T01:13:40;98324.06;;;17.02;87.32
62436;BME280;48480;50.252;18.848;2023-07-31T01:16:25;98327.52;;;17.00;87.26
62436;BME280;48480;50.252;18.848;2023-07-31T01:19:11;98328.67;;;16.99;87.20
62436;BME280;48480;50.252;18.848;2023-07-31T01:28:21;98339.69;;;16.88;87.15
62436;BME280;48480;50.252;18.848;2023-07-31T01:31:12;98340.41;;;16.85;87.18
62436;BME280;48480;50.252;18.848;2023-07-31T01:34:09;98342.96;;;16.85;87.09
62436;BME280;48480;50.252;18.848;2023-07-31T01:36:53;98341.40;;;16.84;87.07
62436;BME280;48480;50.252;18.848;2023-07-31T01:39:37;98342.98;;;16.83;87.00
62436;BME280;48480;50.252;18.848;2023-07-31T01:42:22;98346.73;;;16.80;86.70
62436;BME280;48480;50.252;18.848;2023-07-31T01:45:06;98350.31;;;16.78;86.89
62436;BME280;48480;50.252;18.848;2023-07-31T01:47:51;98346.82;;;16.77;86.93
62436;BME280;48480;50.252;18.848;2023-07-31T01:50:35;98351.45;;;16.76;86.71
62436;BME280;48480;50.252;18.848;2023-07-31T01:53:19;98349.41;;;16.75;86.80
62436;BME280;48480;50.252;18.848;2023-07-31T01:56:04;98348.89;;;16.72;86.78
62436;BME280;48480;50.252;18.848;2023-07-31T01:58:49;98345.86;;;16.71;86.60
62436;BME280;48480;50.252;18.848;2023-07-31T02:01:33;98347.80;;;16.71;86.54
62436;BME280;48480;50.252;18.848;2023-07-31T02:04:19;98347.73;;;16.72;86.57
62436;BME280;48480;50.252;18.848;2023-07-31T02:07:03;98346.17;;;16.72;86.74
62436;BME280;48480;50.252;18.848;2023-07-31T02:09:47;98352.13;;;16.79;86.41
62436;BME280;48480;50.252;18.848;2023-07-31T02:12:31;98352.66;;;16.90;86.11
62436;BME280;48480;50.252;18.848;2023-07-31T02:15:17;98355.42;;;17.02;85.92
62436;BME280;48480;50.252;18.848;2023-07-31T02:18:02;98359.86;;;17.13;85.74
62436;BME280;48480;50.252;18.848;2023-07-31T02:20:52;98362.66;;;17.23;85.43
62436;BME280;48480;50.252;18.848;2023-07-31T02:23:37;98360.27;;;17.29;85.15
62436;BME280;48480;50.252;18.848;2023-07-31T02:26:21;98359.42;;;17.38;84.78
62436;BME280;48480;50.252;18.848;2023-07-31T02:29:05;98361.55;;;17.45;84.54
62436;BME280;48480;50.252;18.848;2023-07-31T02:31:50;98361.04;;;17.52;84.54
62436;BME280;48480;50.252;18.848;2023-07-31T02:34:34;98349.42;;;17.57;84.46
62436;BME280;48480;50.252;18.848;2023-07-31T02:37:18;98346.75;;;17.56;84.25
62436;BME280;48480;50.252;18.848;2023-07-31T02:40:03;98353.08;;;17.52;83.82
62436;BME280;48480;50.252;18.848;2023-07-31T02:42:47;98364.73;;;17.49;83.63
62436;BME280;48480;50.252;18.848;2023-07-31T02:45:31;98374.31;;;17.43;83.50
62436;BME280;48480;50.252;18.848;2023-07-31T02:48:15;98375.96;;;17.40;83.47
62436;BME280;48480;50.252;18.848;2023-07-31T02:51:00;98378.56;;;17.38;83.29
62436;BME280;48480;50.252;18.848;2023-07-31T02:53:44;98386.50;;;17.36;83.35
62436;BME280;48480;50.252;18.848;2023-07-31T02:56:28;98382.48;;;17.31;83.40
62436;BME280;48480;50.252;18.848;2023-07-31T02:59:12;98390.55;;;17.28;83.59
62436;BME280;48480;50.252;18.848;2023-07-31T03:01:57;98390.84;;;17.22;83.51
62436;BME280;48480;50.252;18.848;2023-07-31T03:04:41;98390.67;;;17.11;83.52
62436;BME280;48480;50.252;18.848;2023-07-31T03:07:25;98391.80;;;17.06;83.95
62436;BME280;48480;50.252;18.848;2023-07-31T03:10:09;98388.73;;;17.03;83.81
62436;BME280;48480;50.252;18.848;2023-07-31T03:12:53;98391.05;;;17.07;84.01
62436;BME280;48480;50.252;18.848;2023-07-31T03:15:38;98387.86;;;17.15;83.79
62436;BME280;48480;50.252;18.848;2023-07-31T03:18:22;98386.86;;;17.20;83.63
62436;BME280;48480;50.252;18.848;2023-07-31T03:21:06;98387.24;;;17.19;83.26
62436;BME280;48480;50.252;18.848;2023-07-31T03:23:49;98389.52;;;17.22;83.26
62436;BME280;48480;50.252;18.848;2023-07-31T03:26:34;98392.45;;;17.22;83.10
62436;BME280;48480;50.252;18.848;2023-07-31T03:29:19;98388.85;;;17.19;82.90
62436;BME280;48480;50.252;18.848;2023-07-31T03:32:03;98391.26;;;17.19;82.69
62436;BME280;48480;50.252;18.848;2023-07-31T03:34:47;98395.66;;;17.23;82.64
62436;BME280;48480;50.252;18.848;2023-07-31T03:37:32;98401.00;;;17.27;82.68
62436;BME280;48480;50.252;18.848;2023-07-31T03:40:16;98405.55;;;17.35;82.33
62436;BME280;48480;50.252;18.848;2023-07-31T03:43:00;98412.46;;;17.36;82.07
62436;BME280;48480;50.252;18.848;2023-07-31T03:45:44;98411.14;;;17.31;82.21
62436;BME280;48480;50.252;18.848;2023-07-31T03:48:29;98410.84;;;17.28;82.18
62436;BME280;48480;50.252;18.848;2023-07-31T03:51:13;98406.41;;;17.26;82.00
62436;BME280;48480;50.252;18.848;2023-07-31T03:53:57;98409.30;;;17.27;81.84
62436;BME280;48480;50.252;18.848;2023-07-31T03:56:41;98407.97;;;17.31;81.58
62436;BME280;48480;50.252;18.848;2023-07-31T03:59:25;98409.55;;;17.34;81.53
62436;BME280;48480;50.252;18.848;2023-07-31T04:02:09;98412.85;;;17.33;81.60
62436;BME280;48480;50.252;18.848;2023-07-31T04:04:53;98411.30;;;17.31;81.76
62436;BME280;48480;50.252;18.848;2023-07-31T04:07:38;98410.00;;;17.28;81.81
62436;BME280;48480;50.252;18.848;2023-07-31T04:10:22;98409.78;;;17.29;81.71
62436;BME280;48480;50.252;18.848;2023-07-31T04:13:07;98408.67;;;17.37;81.41
62436;BME280;48480;50.252;18.848;2023-07-31T04:15:50;98409.41;;;17.43;81.14
62436;BME280;48480;50.252;18.848;2023-07-31T04:18:34;98399.02;;;17.43;81.08
62436;BME280;48480;50.252;18.848;2023-07-31T04:21:18;98408.17;;;17.54;80.90
62436;BME280;48480;50.252;18.848;2023-07-31T04:24:02;98409.35;;;17.55;80.82
62436;BME280;48480;50.252;18.848;2023-07-31T04:26:47;98406.72;;;17.54;80.75
62436;BME280;48480;50.252;18.848;2023-07-31T04:29:32;98408.98;;;17.56;80.76
62436;BME280;48480;50.252;18.848;2023-07-31T04:32:16;98405.12;;;17.61;80.65
62436;BME280;48480;50.252;18.848;2023-07-31T04:35:01;98412.58;;;17.71;80.56
62436;BME280;48480;50.252;18.848;2023-07-31T04:37:45;98415.79;;;17.79;80.52
62436;BME280;48480;50.252;18.848;2023-07-31T04:40:32;98421.63;;;17.81;80.16
62436;BME280;48480;50.252;18.848;2023-07-31T04:43:16;98420.14;;;17.80;80.15
62436;BME280;48480;50.252;18.848;2023-07-31T04:46:01;98422.48;;;17.81;80.08
62436;BME280;48480;50.252;18.848;2023-07-31T04:48:45;98419.88;;;17.86;79.87
62436;BME280;48480;50.252;18.848;2023-07-31T04:51:29;98422.44;;;17.96;79.42
62436;BME280;48480;50.252;18.848;2023-07-31T04:54:13;98422.80;;;18.05;79.24
62436;BME280;48480;50.252;18.848;2023-07-31T04:56:58;98426.91;;;18.16;78.70
62436;BME280;48480;50.252;18.848;2023-07-31T04:59:42;98422.23;;;18.20;78.14
62436;BME280;48480;50.252;18.848;2023-07-31T05:02:26;98424.02;;;18.21;78.12
62436;BME280;48480;50.252;18.848;2023-07-31T05:05:12;98420.33;;;18.23;77.60
62436;BME280;48480;50.252;18.848;2023-07-31T05:07:56;98423.58;;;18.21;77.59
62436;BME280;48480;50.252;18.848;2023-07-31T05:10:40;98422.32;;;18.21;77.50
62436;BME280;48480;50.252;18.848;2023-07-31T05:13:24;98422.28;;;18.29;77.57
62436;BME280;48480;50.252;18.848;2023-07-31T05:16:08;98422.54;;;18.68;76.93
62436;BME280;48480;50.252;18.848;2023-07-31T05:18:52;98423.99;;;19.46;75.36
62436;BME280;48480;50.252;18.848;2023-07-31T05:21:36;98430.26;;;19.87;73.73
62436;BME280;48480;50.252;18.848;2023-07-31T05:24:20;98428.66;;;19.94;72.98
62436;BME280;48480;50.252;18.848;2023-07-31T05:27:05;98432.95;;;20.18;71.92
62436;BME280;48480;50.252;18.848;2023-07-31T05:29:49;98432.52;;;20.26;70.85
62436;BME280;48480;50.252;18.848;2023-07-31T05:32:34;98432.14;;;20.26;70.41
62436;BME280;48480;50.252;18.848;2023-07-31T05:35:17;98430.96;;;20.23;70.21
62436;BME280;48480;50.252;18.848;2023-07-31T05:38:02;98432.48;;;21.02;68.43
62436;BME280;48480;50.252;18.848;2023-07-31T05:40:46;98417.30;;;21.80;66.44
62436;BME280;48480;50.252;18.848;2023-07-31T05:43:31;98433.79;;;22.78;64.18
62436;BME280;48480;50.252;18.848;2023-07-31T05:46:14;98431.52;;;23.48;62.55
62436;BME280;48480;50.252;18.848;2023-07-31T05:48:59;98427.50;;;24.02;59.59
62436;BME280;48480;50.252;18.848;2023-07-31T05:51:44;98428.17;;;24.36;58.36
62436;BME280;48480;50.252;18.848;2023-07-31T05:54:28;98429.70;;;24.55;57.49
62436;BME280;48480;50.252;18.848;2023-07-31T05:57:13;98428.66;;;24.48;57.53
62436;BME280;48480;50.252;18.848;2023-07-31T05:59:57;98433.71;;;24.67;56.66
62436;BME280;48480;50.252;18.848;2023-07-31T06:02:41;98435.13;;;24.85;55.97
62436;BME280;48480;50.252;18.848;2023-07-31T06:05:26;98436.77;;;24.98;55.42
62436;BME280;48480;50.252;18.848;2023-07-31T06:08:12;98438.58;;;25.03;54.86
62436;BME280;48480;50.252;18.848;2023-07-31T06:10:56;98444.02;;;24.83;54.27
62436;BME280;48480;50.252;18.848;2023-07-31T06:13:40;98447.40;;;24.68;53.68
62436;BME280;48480;50.252;18.848;2023-07-31T06:16:24;98446.19;;;24.78;53.29
62436;BME280;48480;50.252;18.848;2023-07-31T06:19:09;98442.59;;;25.14;52.92
62436;BME280;48480;50.252;18.848;2023-07-31T06:21:53;98436.60;;;25.50;51.84
62436;BME280;48480;50.252;18.848;2023-07-31T06:24:37;98433.77;;;25.74;51.00
62436;BME280;48480;50.252;18.848;2023-07-31T06:27:21;98433.77;;;25.95;49.56
62436;BME280;48480;50.252;18.848;2023-07-31T06:30:06;98427.66;;;26.23;49.59
62436;BME280;48480;50.252;18.848;2023-07-31T06:32:50;98430.72;;;26.57;47.90
62436;BME280;48480;50.252;18.848;2023-07-31T06:35:35;98429.30;;;26.70;47.01
62436;BME280;48480;50.252;18.848;2023-07-31T06:38:23;98427.44;;;26.87;46.89
62436;BME280;48480;50.252;18.848;2023-07-31T06:41:08;98423.41;;;27.10;45.81
62436;BME280;48480;50.252;18.848;2023-07-31T06:43:52;98421.55;;;27.16;45.51
62436;BME280;48480;50.252;18.848;2023-07-31T06:46:36;98423.95;;;27.29;44.68
62436;BME280;48480;50.252;18.848;2023-07-31T06:49:20;98422.14;;;27.46;44.58
62436;BME280;48480;50.252;18.848;2023-07-31T06:52:05;98419.21;;;27.63;44.15
62436;BME280;48480;50.252;18.848;2023-07-31T06:55:04;98424.42;;;27.88;43.58
62436;BME280;48480;50.252;18.848;2023-07-31T06:57:59;98427.98;;;28.24;42.73
62436;BME280;48480;50.252;18.848;2023-07-31T07:00:43;98426.58;;;28.47;42.39
62436;BME280;48480;50.252;18.848;2023-07-31T07:03:27;98425.66;;;28.68;41.09
62436;BME280;48480;50.252;18.848;2023-07-31T07:06:11;98429.30;;;28.63;40.79
62436;BME280;48480;50.252;18.848;2023-07-31T07:08:55;98428.10;;;28.58;40.50
62436;BME280;48480;50.252;18.848;2023-07-31T07:11:39;98431.17;;;28.40;40.66
62436;BME280;48480;50.252;18.848;2023-07-31T07:14:23;98435.37;;;28.13;40.61
62436;BME280;48480;50.252;18.848;2023-07-31T07:17:07;98433.36;;;27.77;41.43
62436;BME280;48480;50.252;18.848;2023-07-31T07:19:52;98432.92;;;27.53;41.91
62436;BME280;48480;50.252;18.848;2023-07-31T07:22:36;98428.90;;;27.59;41.56
62436;BME280;48480;50.252;18.848;2023-07-31T07:25:20;98430.31;;;27.86;41.57
62436;BME280;48480;50.252;18.848;2023-07-31T07:28:04;98426.55;;;28.05;41.09
62436;BME280;48480;50.252;18.848;2023-07-31T07:30:52;98426.65;;;28.15;40.92
62436;BME280;48480;50.252;18.848;2023-07-31T07:33:37;98428.30;;;28.21;41.20
62436;BME280;48480;50.252;18.848;2023-07-31T07:36:22;98422.21;;;28.25;40.91
62436;BME280;48480;50.252;18.848;2023-07-31T07:39:06;98425.93;;;28.30;41.22
62436;BME280;48480;50.252;18.848;2023-07-31T07:41:50;98429.47;;;28.30;40.97
62436;BME280;48480;50.252;18.848;2023-07-31T07:44:35;98427.70;;;28.14;40.74
62436;BME280;48480;50.252;18.848;2023-07-31T07:47:19;98425.36;;;28.07;40.52
62436;BME280;48480;50.252;18.848;2023-07-31T07:50:03;98423.86;;;28.07;40.21
62436;BME280;48480;50.252;18.848;2023-07-31T07:52:48;98426.66;;;28.00;40.11
62436;BME280;48480;50.252;18.848;2023-07-31T07:55:32;98426.71;;;28.04;39.24
62436;BME280;48480;50.252;18.848;2023-07-31T07:58:16;98425.52;;;27.88;39.71
62436;BME280;48480;50.252;18.848;2023-07-31T08:01:00;98425.14;;;27.75;40.27
62436;BME280;48480;50.252;18.848;2023-07-31T08:03:44;98428.70;;;27.48;40.51
62436;BME280;48480;50.252;18.848;2023-07-31T08:06:29;98427.84;;;27.32;41.16
62436;BME280;48480;50.252;18.848;2023-07-31T08:09:14;98433.00;;;27.18;40.96
62436;BME280;48480;50.252;18.848;2023-07-31T08:11:58;98438.38;;;26.87;41.01
62436;BME280;48480;50.252;18.848;2023-07-31T08:14:45;98439.11;;;26.67;41.93
62436;BME280;48480;50.252;18.848;2023-07-31T08:17:30;98440.35;;;26.72;41.47
62436;BME280;48480;50.252;18.848;2023-07-31T08:20:14;98442.09;;;26.83;40.44
62436;BME280;48480;50.252;18.848;2023-07-31T08:22:59;98438.86;;;26.95;39.99
62436;BME280;48480;50.252;18.848;2023-07-31T08:25:45;98439.44;;;26.93;39.97
62436;BME280;48480;50.252;18.848;2023-07-31T08:28:29;98437.30;;;27.19;40.80
62436;BME280;48480;50.252;18.848;2023-07-31T08:31:13;98434.46;;;27.54;39.84
62436;BME280;48480;50.252;18.848;2023-07-31T08:33:57;98436.16;;;27.84;39.88
62436;BME280;48480;50.252;18.848;2023-07-31T08:36:41;98438.86;;;28.03;39.35
62436;BME280;48480;50.252;18.848;2023-07-31T08:39:25;98440.56;;;27.99;38.48
62436;BME280;48480;50.252;18.848;2023-07-31T08:42:09;98433.80;;;28.07;37.95
62436;BME280;48480;50.252;18.848;2023-07-31T08:44:55;98433.88;;;28.22;38.20
62436;BME280;48480;50.252;18.848;2023-07-31T08:47:41;98434.45;;;28.32;37.46
62436;BME280;48480;50.252;18.848;2023-07-31T08:50:26;98430.15;;;28.52;36.77
62436;BME280;48480;50.252;18.848;2023-07-31T08:53:12;98433.31;;;28.22;36.49
62436;BME280;48480;50.252;18.848;2023-07-31T08:55:56;98430.23;;;28.08;37.09
62436;BME280;48480;50.252;18.848;2023-07-31T08:58:43;98434.26;;;28.04;36.21
62436;BME280;48480;50.252;18.848;2023-07-31T09:01:30;98431.32;;;27.79;36.36
62436;BME280;48480;50.252;18.848;2023-07-31T09:04:16;98427.09;;;27.89;36.20
62436;BME280;48480;50.252;18.848;2023-07-31T09:07:04;98421.58;;;28.07;36.78
62436;BME280;48480;50.252;18.848;2023-07-31T09:09:53;98420.15;;;28.13;36.70
62436;BME280;48480;50.252;18.848;2023-07-31T09:12:38;98424.42;;;28.16;37.05
62436;BME280;48480;50.252;18.848;2023-07-31T09:15:23;98421.51;;;28.16;37.10
62436;BME280;48480;50.252;18.848;2023-07-31T09:18:08;98418.38;;;28.21;36.41
62436;BME280;48480;50.252;18.848;2023-07-31T09:21:02;98417.80;;;28.23;36.58
62436;BME280;48480;50.252;18.848;2023-07-31T09:23:47;98419.31;;;28.07;35.99
62436;BME280;48480;50.252;18.848;2023-07-31T09:26:33;98417.69;;;27.96;35.49
62436;BME280;48480;50.252;18.848;2023-07-31T09:29:19;98414.31;;;28.14;35.34
62436;BME280;48480;50.252;18.848;2023-07-31T09:32:04;98412.41;;;28.12;35.51
62436;BME280;48480;50.252;18.848;2023-07-31T09:34:48;98409.79;;;28.07;36.20
62436;BME280;48480;50.252;18.848;2023-07-31T09:37:32;98409.45;;;28.28;34.98
62436;BME280;48480;50.252;18.848;2023-07-31T09:40:48;98401.18;;;28.25;34.94
62436;BME280;48480;50.252;18.848;2023-07-31T09:43:32;98407.71;;;27.76;35.01
62436;BME280;48480;50.252;18.848;2023-07-31T09:46:20;98403.98;;;27.65;35.62
62436;BME280;48480;50.252;18.848;2023-07-31T09:51:50;98406.91;;;27.83;35.75
62436;BME280;48480;50.252;18.848;2023-07-31T09:54:34;98409.76;;;27.60;35.44
62436;BME280;48480;50.252;18.848;2023-07-31T09:57:21;98406.44;;;27.54;35.49
62436;BME280;48480;50.252;18.848;2023-07-31T10:00:07;98397.11;;;27.81;34.82
62436;BME280;48480;50.252;18.848;2023-07-31T10:02:54;98401.88;;;28.14;34.59
62436;BME280;48480;50.252;18.848;2023-07-31T10:05:50;98390.40;;;28.21;33.92
62436;BME280;48480;50.252;18.848;2023-07-31T10:08:37;98398.52;;;27.91;34.11
62436;BME280;48480;50.252;18.848;2023-07-31T10:11:25;98397.23;;;27.48;34.55
62436;BME280;48480;50.252;18.848;2023-07-31T10:14:11;98395.17;;;27.07;34.92
62436;BME280;48480;50.252;18.848;2023-07-31T10:16:58;98388.30;;;26.68;35.48
62436;BME280;48480;50.252;18.848;2023-07-31T10:19:53;98381.94;;;26.75;35.66
62436;BME280;48480;50.252;18.848;2023-07-31T10:22:38;98373.45;;;26.80;35.93
62436;BME280;48480;50.252;18.848;2023-07-31T10:25:22;98369.48;;;26.59;36.07
62436;BME280;48480;50.252;18.848;2023-07-31T10:28:09;98362.36;;;26.68;36.04
62436;BME280;48480;50.252;18.848;2023-07-31T10:30:55;98356.11;;;26.95;35.48
62436;BME280;48480;50.252;18.848;2023-07-31T10:33:40;98360.52;;;27.40;35.02
62436;BME280;48480;50.252;18.848;2023-07-31T10:36:25;98356.75;;;27.80;34.48
62436;BME280;48480;50.252;18.848;2023-07-31T10:39:34;98360.73;;;28.09;33.83
62436;BME280;48480;50.252;18.848;2023-07-31T10:42:28;98357.92;;;28.19;33.81
62436;BME280;48480;50.252;18.848;2023-07-31T10:45:24;98353.02;;;28.34;33.19
62436;BME280;48480;50.252;18.848;2023-07-31T10:48:15;98344.16;;;28.07;33.17
62436;BME280;48480;50.252;18.848;2023-07-31T10:50:59;98353.04;;;27.80;33.70
62436;BME280;48480;50.252;18.848;2023-07-31T10:53:44;98349.99;;;27.61;33.81
62436;BME280;48480;50.252;18.848;2023-07-31T10:56:37;98344.94;;;27.33;34.03
62436;BME280;48480;50.252;18.848;2023-07-31T10:59:27;98347.81;;;27.21;34.41
62436;BME280;48480;50.252;18.848;2023-07-31T11:02:26;98342.83;;;27.40;34.06
62436;BME280;48480;50.252;18.848;2023-07-31T11:05:14;98342.58;;;27.68;33.34
62436;BME280;48480;50.252;18.848;2023-07-31T11:07:58;98341.88;;;27.79;34.00
62436;BME280;48480;50.252;18.848;2023-07-31T11:10:43;98342.74;;;28.01;33.59
62436;BME280;48480;50.252;18.848;2023-07-31T11:13:44;98340.00;;;28.04;33.18
62436;BME280;48480;50.252;18.848;2023-07-31T11:16:30;98333.85;;;28.07;32.74
62436;BME280;48480;50.252;18.848;2023-07-31T11:19:14;98330.19;;;28.05;32.83
62436;BME280;48480;50.252;18.848;2023-07-31T11:21:59;98331.58;;;28.06;33.64
62436;BME280;48480;50.252;18.848;2023-07-31T11:24:43;98328.94;;;28.16;32.86
62436;BME280;48480;50.252;18.848;2023-07-31T11:27:28;98328.20;;;28.25;32.76
62436;BME280;48480;50.252;18.848;2023-07-31T11:30:14;98325.85;;;28.33;32.08
62436;BME280;48480;50.252;18.848;2023-07-31T11:33:02;98322.74;;;28.40;32.20
62436;BME280;48480;50.252;18.848;2023-07-31T11:35:54;98322.52;;;28.42;32.49
62436;BME280;48480;50.252;18.848;2023-07-31T11:38:38;98324.99;;;28.53;32.72
62436;BME280;48480;50.252;18.848;2023-07-31T11:41:22;98323.15;;;28.45;32.45
62436;BME280;48480;50.252;18.848;2023-07-31T11:44:06;98320.47;;;28.18;32.54
62436;BME280;48480;50.252;18.848;2023-07-31T11:46:50;98316.16;;;27.85;32.74
62436;BME280;48480;50.252;18.848;2023-07-31T11:49:37;98313.01;;;27.58;33.47
62436;BME280;48480;50.252;18.848;2023-07-31T11:52:22;98306.98;;;27.29;34.22
62436;BME280;48480;50.252;18.848;2023-07-31T11:55:12;98311.17;;;27.07;34.42
62436;BME280;48480;50.252;18.848;2023-07-31T11:57:57;98311.18;;;26.83;34.33
62436;BME280;48480;50.252;18.848;2023-07-31T12:00:43;98303.86;;;26.55;34.80
62436;BME280;48480;50.252;18.848;2023-07-31T12:03:27;98305.36;;;26.39;35.54
62436;BME280;48480;50.252;18.848;2023-07-31T12:06:12;98304.38;;;26.30;35.77
62436;BME280;48480;50.252;18.848;2023-07-31T12:09:03;98303.23;;;26.17;35.85
62436;BME280;48480;50.252;18.848;2023-07-31T12:11:48;98297.73;;;26.10;36.43
62436;BME280;48480;50.252;18.848;2023-07-31T12:14:33;98291.16;;;26.01;36.81
62436;BME280;48480;50.252;18.848;2023-07-31T12:17:19;98291.93;;;25.97;37.38
62436;BME280;48480;50.252;18.848;2023-07-31T12:20:07;98289.29;;;25.91;37.47
62436;BME280;48480;50.252;18.848;2023-07-31T12:22:52;98285.23;;;25.94;37.11
62436;BME280;48480;50.252;18.848;2023-07-31T12:25:36;98280.58;;;25.95;37.12
62436;BME280;48480;50.252;18.848;2023-07-31T12:28:22;98277.14;;;25.94;37.30
62436;BME280;48480;50.252;18.848;2023-07-31T12:31:13;98272.81;;;25.90;37.55
62436;BME280;48480;50.252;18.848;2023-07-31T12:33:58;98246.44;;;25.66;37.27
62436;BME280;48480;50.252;18.848;2023-07-31T12:36:42;98264.60;;;25.81;37.61
62436;BME280;48480;50.252;18.848;2023-07-31T12:39:27;98262.64;;;25.77;37.51
62436;BME280;48480;50.252;18.848;2023-07-31T12:42:12;98256.75;;;25.72;37.80
62436;BME280;48480;50.252;18.848;2023-07-31T12:44:57;98257.30;;;25.77;38.00
62436;BME280;48480;50.252;18.848;2023-07-31T12:47:42;98254.69;;;25.86;37.46
62436;BME280;48480;50.252;18.848;2023-07-31T12:50:27;98250.90;;;25.91;37.52
62436;BME280;48480;50.252;18.848;2023-07-31T12:53:11;98247.77;;;26.03;37.45
62436;BME280;48480;50.252;18.848;2023-07-31T12:55:56;98240.48;;;26.13;37.17
62436;BME280;48480;50.252;18.848;2023-07-31T12:58:41;98236.48;;;26.21;37.00
62436;BME280;48480;50.252;18.848;2023-07-31T13:01:26;98238.17;;;26.30;37.13
62436;BME280;48480;50.252;18.848;2023-07-31T13:04:11;98238.71;;;26.37;36.07
62436;BME280;48480;50.252;18.848;2023-07-31T13:06:55;98235.19;;;26.33;35.46
62436;BME280;48480;50.252;18.848;2023-07-31T13:09:39;98231.39;;;26.35;35.54
62436;BME280;48480;50.252;18.848;2023-07-31T13:12:24;98228.14;;;26.39;36.09
62436;BME280;48480;50.252;18.848;2023-07-31T13:15:08;98226.83;;;26.45;35.54
62436;BME280;48480;50.252;18.848;2023-07-31T13:17:52;98224.48;;;26.41;35.51
62436;BME280;48480;50.252;18.848;2023-07-31T13:20:37;98222.36;;;26.34;35.74
62436;BME280;48480;50.252;18.848;2023-07-31T13:23:21;98216.20;;;26.28;36.19
62436;BME280;48480;50.252;18.848;2023-07-31T13:26:06;98214.78;;;26.21;36.60
62436;BME280;48480;50.252;18.848;2023-07-31T13:28:50;98219.09;;;26.12;36.77
62436;BME280;48480;50.252;18.848;2023-07-31T13:31:34;98215.69;;;26.02;36.64
62436;BME280;48480;50.252;18.848;2023-07-31T13:34:19;98213.02;;;25.95;36.61
62436;BME280;48480;50.252;18.848;2023-07-31T13:37:03;98212.73;;;25.93;36.98
62436;BME280;48480;50.252;18.848;2023-07-31T13:39:50;98208.07;;;25.94;36.34
62436;BME280;48480;50.252;18.848;2023-07-31T13:42:34;98207.30;;;25.97;36.38
62436;BME280;48480;50.252;18.848;2023-07-31T13:45:18;98202.09;;;26.02;36.03
62436;BME280;48480;50.252;18.848;2023-07-31T13:48:03;98202.95;;;26.03;36.18
62436;BME280;48480;50.252;18.848;2023-07-31T13:50:47;98206.53;;;26.08;37.10
62436;BME280;48480;50.252;18.848;2023-07-31T13:53:31;98203.04;;;26.13;37.19
62436;BME280;48480;50.252;18.848;2023-07-31T13:56:16;98201.98;;;26.07;36.93
62436;BME280;48480;50.252;18.848;2023-07-31T13:59:00;98203.05;;;25.94;36.65
62436;BME280;48480;50.252;18.848;2023-07-31T14:01:45;98201.08;;;25.81;36.60
62436;BME280;48480;50.252;18.848;2023-07-31T14:04:29;98203.91;;;25.70;36.60
62436;BME280;48480;50.252;18.848;2023-07-31T14:07:13;98203.98;;;25.54;36.92
62436;BME280;48480;50.252;18.848;2023-07-31T14:09:58;98210.22;;;25.48;37.42
62436;BME280;48480;50.252;18.848;2023-07-31T14:12:42;98200.26;;;25.31;37.48
62436;BME280;48480;50.252;18.848;2023-07-31T14:15:27;98208.49;;;25.27;37.95
62436;BME280;48480;50.252;18.848;2023-07-31T14:18:14;98209.66;;;25.17;38.05
62436;BME280;48480;50.252;18.848;2023-07-31T14:20:58;98210.19;;;25.05;38.56
62436;BME280;48480;50.252;18.848;2023-07-31T14:23:42;98215.55;;;24.98;39.29
62436;BME280;48480;50.252;18.848;2023-07-31T14:26:26;98212.13;;;24.87;39.71
62436;BME280;48480;50.252;18.848;2023-07-31T14:29:10;98216.22;;;24.76;39.86
62436;BME280;48480;50.252;18.848;2023-07-31T14:31:54;98215.41;;;24.63;40.22
62436;BME280;48480;50.252;18.848;2023-07-31T14:34:39;98215.40;;;24.52;40.51